sensor_id;sensor_type;location;lat;lon;timestamp;pressure;altitude;pressure_sealevel;temperature
9119;BMP180;4594;50.994;7.126;2022-09-12T00:02:25;100813.00;;;18.50
9119;BMP180;4594;50.994;7.126;2022-09-12T00:04:51;100798.00;;;18.50
9119;BMP180;4594;50.994;7.126;2022-09-12T00:07:16;100804.00;;;18.50
9119;BMP180;4594;50.994;7.126;2022-09-12T00:09:42;100795.00;;;18.50
9119;BMP180;4594;50.994;7.126;2022-09-12T00:12:08;100804.00;;;18.50
9119;BMP180;4594;50.994;7.126;2022-09-12T00:14:34;100801.00;;;18.50
9119;BMP180;4594;50.994;7.126;2022-09-12T00:17:00;100797.00;;;18.50
9119;BMP180;4594;50.994;7.126;2022-09-12T00:19:27;100806.00;;;18.40
9119;BMP180;4594;50.994;7.126;2022-09-12T00:21:53;100801.00;;;18.40
9119;BMP180;4594;50.994;7.126;2022-09-12T00:24:20;100793.00;;;18.40
9119;BMP180;4594;50.994;7.126;2022-09-12T00:26:46;100797.00;;;18.40
9119;BMP180;4594;50.994;7.126;2022-09-12T00:29:18;100797.00;;;18.40
9119;BMP180;4594;50.994;7.126;2022-09-12T00:31:44;100781.00;;;18.40
9119;BMP180;4594;50.994;7.126;2022-09-12T00:34:11;100786.00;;;18.40
9119;BMP180;4594;50.994;7.126;2022-09-12T00:36:38;100792.00;;;18.30
9119;BMP180;4594;50.994;7.126;2022-09-12T00:39:05;100790.00;;;18.30
9119;BMP180;4594;50.994;7.126;2022-09-12T00:41:36;100789.00;;;18.30
9119;BMP180;4594;50.994;7.126;2022-09-12T00:46:46;100791.00;;;18.30
9119;BMP180;4594;50.994;7.126;2022-09-12T00:49:32;100774.00;;;18.30
9119;BMP180;4594;50.994;7.126;2022-09-12T00:52:12;100778.00;;;18.30
9119;BMP180;4594;50.994;7.126;2022-09-12T00:55:10;100781.00;;;18.20
9119;BMP180;4594;50.994;7.126;2022-09-12T00:58:00;100781.00;;;18.20
9119;BMP180;4594;50.994;7.126;2022-09-12T01:00:27;100772.00;;;18.20
9119;BMP180;4594;50.994;7.126;2022-09-12T01:02:58;100768.00;;;18.20
9119;BMP180;4594;50.994;7.126;2022-09-12T01:05:27;100772.00;;;18.20
9119;BMP180;4594;50.994;7.126;2022-09-12T01:07:55;100781.00;;;18.20
9119;BMP180;4594;50.994;7.126;2022-09-12T01:10:22;100772.00;;;18.20
9119;BMP180;4594;50.994;7.126;2022-09-12T01:12:49;100777.00;;;18.20
9119;BMP180;4594;50.994;7.126;2022-09-12T01:15:15;100775.00;;;18.20
9119;BMP180;4594;50.994;7.126;2022-09-12T01:24:36;100773.00;;;18.10
9119;BMP180;4594;50.994;7.126;2022-09-12T01:27:29;100775.00;;;18.10
9119;BMP180;4594;50.994;7.126;2022-09-12T01:39:15;100778.00;;;18.00
9119;BMP180;4594;50.994;7.126;2022-09-12T01:42:12;100771.00;;;18.00
9119;BMP180;4594;50.994;7.126;2022-09-12T01:47:51;100753.00;;;18.00
9119;BMP180;4594;50.994;7.126;2022-09-12T01:50:27;100769.00;;;18.10
9119;BMP180;4594;50.994;7.126;2022-09-12T01:53:11;100757.00;;;18.10
9119;BMP180;4594;50.994;7.126;2022-09-12T01:55:51;100758.00;;;18.00
9119;BMP180;4594;50.994;7.126;2022-09-12T01:58:26;100753.00;;;18.00
9119;BMP180;4594;50.994;7.126;2022-09-12T02:01:11;100747.00;;;18.00
9119;BMP180;4594;50.994;7.126;2022-09-12T02:04:08;100752.00;;;18.00
9119;BMP180;4594;50.994;7.126;2022-09-12T02:07:15;100747.00;;;18.00
9119;BMP180;4594;50.994;7.126;2022-09-12T02:09:53;100744.00;;;18.00
9119;BMP180;4594;50.994;7.126;2022-09-12T02:12:28;100741.00;;;18.00
9119;BMP180;4594;50.994;7.126;2022-09-12T02:15:06;100738.00;;;18.00
9119;BMP180;4594;50.994;7.126;2022-09-12T02:17:39;100745.00;;;17.90
9119;BMP180;4594;50.994;7.126;2022-09-12T02:20:38;100738.00;;;17.90
9119;BMP180;4594;50.994;7.126;2022-09-12T02:23:16;100744.00;;;17.90
9119;BMP180;4594;50.994;7.126;2022-09-12T02:25:45;100735.00;;;17.90
9119;BMP180;4594;50.994;7.126;2022-09-12T02:28:17;100738.00;;;17.90
9119;BMP180;4594;50.994;7.126;2022-09-12T02:39:42;100730.00;;;17.80
9119;BMP180;4594;50.994;7.126;2022-09-12T02:42:07;100734.00;;;17.80
9119;BMP180;4594;50.994;7.126;2022-09-12T02:44:34;100727.00;;;17.80
9119;BMP180;4594;50.994;7.126;2022-09-12T02:47:09;100733.00;;;17.80
9119;BMP180;4594;50.994;7.126;2022-09-12T02:49:36;100730.00;;;17.80
9119;BMP180;4594;50.994;7.126;2022-09-12T02:52:02;100718.00;;;17.80
9119;BMP180;4594;50.994;7.126;2022-09-12T02:54:29;100708.00;;;17.80
9119;BMP180;4594;50.994;7.126;2022-09-12T02:56:55;100711.00;;;17.80
9119;BMP180;4594;50.994;7.126;2022-09-12T02:59:23;100712.00;;;17.80
9119;BMP180;4594;50.994;7.126;2022-09-12T03:04:52;100709.00;;;17.80
9119;BMP180;4594;50.994;7.126;2022-09-12T03:14:09;100706.00;;;17.80
9119;BMP180;4594;50.994;7.126;2022-09-12T03:22:33;100707.00;;;17.70
9119;BMP180;4594;50.994;7.126;2022-09-12T03:25:33;100712.00;;;17.70
9119;BMP180;4594;50.994;7.126;2022-09-12T03:28:09;100717.00;;;17.70
9119;BMP180;4594;50.994;7.126;2022-09-12T03:30:42;100706.00;;;17.70
9119;BMP180;4594;50.994;7.126;2022-09-12T03:33:14;100715.00;;;17.70
9119;BMP180;4594;50.994;7.126;2022-09-12T03:35:41;100709.00;;;17.70
9119;BMP180;4594;50.994;7.126;2022-09-12T03:38:08;100708.00;;;17.70
9119;BMP180;4594;50.994;7.126;2022-09-12T03:40:36;100721.00;;;17.70
9119;BMP180;4594;50.994;7.126;2022-09-12T03:43:03;100715.00;;;17.70
9119;BMP180;4594;50.994;7.126;2022-09-12T03:45:30;100715.00;;;17.70
9119;BMP180;4594;50.994;7.126;2022-09-12T03:47:55;100709.00;;;17.70
9119;BMP180;4594;50.994;7.126;2022-09-12T03:50:21;100717.00;;;17.70
9119;BMP180;4594;50.994;7.126;2022-09-12T03:52:47;100708.00;;;17.70
9119;BMP180;4594;50.994;7.126;2022-09-12T03:55:13;100704.00;;;17.70
9119;BMP180;4594;50.994;7.126;2022-09-12T03:57:39;100708.00;;;17.70
9119;BMP180;4594;50.994;7.126;2022-09-12T04:00:06;100710.00;;;17.70
9119;BMP180;4594;50.994;7.126;2022-09-12T04:02:34;100703.00;;;17.70
9119;BMP180;4594;50.994;7.126;2022-09-12T04:04:59;100698.00;;;17.70
9119;BMP180;4594;50.994;7.126;2022-09-12T04:07:26;100701.00;;;17.70
9119;BMP180;4594;50.994;7.126;2022-09-12T04:09:51;100703.00;;;17.70
9119;BMP180;4594;50.994;7.126;2022-09-12T04:12:19;100695.00;;;17.70
9119;BMP180;4594;50.994;7.126;2022-09-12T04:14:44;100687.00;;;17.70
9119;BMP180;4594;50.994;7.126;2022-09-12T04:17:10;100691.00;;;17.70
9119;BMP180;4594;50.994;7.126;2022-09-12T04:19:36;100698.00;;;17.70
9119;BMP180;4594;50.994;7.126;2022-09-12T04:22:02;100695.00;;;17.70
9119;BMP180;4594;50.994;7.126;2022-09-12T04:24:28;100697.00;;;17.70
9119;BMP180;4594;50.994;7.126;2022-09-12T04:26:54;100698.00;;;17.70
9119;BMP180;4594;50.994;7.126;2022-09-12T04:29:20;100696.00;;;17.70
9119;BMP180;4594;50.994;7.126;2022-09-12T04:31:46;100700.00;;;17.70
9119;BMP180;4594;50.994;7.126;2022-09-12T04:34:12;100694.00;;;17.70
9119;BMP180;4594;50.994;7.126;2022-09-12T04:36:38;100701.00;;;17.60
9119;BMP180;4594;50.994;7.126;2022-09-12T04:39:04;100692.00;;;17.60
9119;BMP180;4594;50.994;7.126;2022-09-12T04:41:33;100691.00;;;17.60
9119;BMP180;4594;50.994;7.126;2022-09-12T04:44:04;100694.00;;;17.60
9119;BMP180;4594;50.994;7.126;2022-09-12T04:46:38;100695.00;;;17.60
9119;BMP180;4594;50.994;7.126;2022-09-12T04:49:04;100693.00;;;17.60
9119;BMP180;4594;50.994;7.126;2022-09-12T04:51:34;100691.00;;;17.60
9119;BMP180;4594;50.994;7.126;2022-09-12T04:54:06;100691.00;;;17.60
9119;BMP180;4594;50.994;7.126;2022-09-12T04:56:37;100689.00;;;17.60
9119;BMP180;4594;50.994;7.126;2022-09-12T04:59:03;100679.00;;;17.60
9119;BMP180;4594;50.994;7.126;2022-09-12T05:01:29;100680.00;;;17.60
9119;BMP180;4594;50.994;7.126;2022-09-12T05:03:57;100675.00;;;17.60
9119;BMP180;4594;50.994;7.126;2022-09-12T05:06:27;100677.00;;;17.60
9119;BMP180;4594;50.994;7.126;2022-09-12T05:08:53;100666.00;;;17.70
9119;BMP180;4594;50.994;7.126;2022-09-12T05:11:24;100669.00;;;17.70
9119;BMP180;4594;50.994;7.126;2022-09-12T05:13:50;100660.00;;;17.70
9119;BMP180;4594;50.994;7.126;2022-09-12T05:16:19;100665.00;;;17.70
9119;BMP180;4594;50.994;7.126;2022-09-12T05:18:46;100668.00;;;17.80
9119;BMP180;4594;50.994;7.126;2022-09-12T05:21:15;100669.00;;;17.80
9119;BMP180;4594;50.994;7.126;2022-09-12T05:23:42;100672.00;;;17.90
9119;BMP180;4594;50.994;7.126;2022-09-12T05:26:13;100655.00;;;17.90
9119;BMP180;4594;50.994;7.126;2022-09-12T05:28:40;100674.00;;;18.00
9119;BMP180;4594;50.994;7.126;2022-09-12T05:31:18;100670.00;;;18.00
9119;BMP180;4594;50.994;7.126;2022-09-12T05:33:46;100670.00;;;18.10
9119;BMP180;4594;50.994;7.126;2022-09-12T05:36:17;100665.00;;;18.10
9119;BMP180;4594;50.994;7.126;2022-09-12T05:38:45;100668.00;;;18.20
9119;BMP180;4594;50.994;7.126;2022-09-12T05:41:23;100658.00;;;18.30
9119;BMP180;4594;50.994;7.126;2022-09-12T05:43:54;100664.00;;;18.40
9119;BMP180;4594;50.994;7.126;2022-09-12T05:46:24;100669.00;;;18.40
9119;BMP180;4594;50.994;7.126;2022-09-12T05:48:51;100667.00;;;18.50
9119;BMP180;4594;50.994;7.126;2022-09-12T05:51:25;100665.00;;;18.60
9119;BMP180;4594;50.994;7.126;2022-09-12T05:53:57;100677.00;;;18.70
9119;BMP180;4594;50.994;7.126;2022-09-12T05:56:27;100680.00;;;18.80
9119;BMP180;4594;50.994;7.126;2022-09-12T05:59:00;100684.00;;;18.90
9119;BMP180;4594;50.994;7.126;2022-09-12T06:01:27;100685.00;;;19.00
9119;BMP180;4594;50.994;7.126;2022-09-12T06:03:56;100686.00;;;19.10
9119;BMP180;4594;50.994;7.126;2022-09-12T06:06:24;100678.00;;;19.20
9119;BMP180;4594;50.994;7.126;2022-09-12T06:08:53;100689.00;;;19.40
9119;BMP180;4594;50.994;7.126;2022-09-12T06:11:23;100694.00;;;19.60
9119;BMP180;4594;50.994;7.126;2022-09-12T06:13:51;100692.00;;;19.80
9119;BMP180;4594;50.994;7.126;2022-09-12T06:16:23;100684.00;;;20.00
9119;BMP180;4594;50.994;7.126;2022-09-12T06:19:03;100699.00;;;20.40
9119;BMP180;4594;50.994;7.126;2022-09-12T06:21:29;100685.00;;;20.70
9119;BMP180;4594;50.994;7.126;2022-09-12T06:24:00;100698.00;;;21.10
9119;BMP180;4594;50.994;7.126;2022-09-12T06:26:27;100696.00;;;21.40
9119;BMP180;4594;50.994;7.126;2022-09-12T06:28:55;100695.00;;;21.80
9119;BMP180;4594;50.994;7.126;2022-09-12T06:31:29;100693.00;;;22.10
9119;BMP180;4594;50.994;7.126;2022-09-12T06:33:59;100685.00;;;22.40
9119;BMP180;4594;50.994;7.126;2022-09-12T06:36:29;100687.00;;;22.60
9119;BMP180;4594;50.994;7.126;2022-09-12T06:38:58;100697.00;;;22.80
9119;BMP180;4594;50.994;7.126;2022-09-12T06:41:26;100697.00;;;23.10
9119;BMP180;4594;50.994;7.126;2022-09-12T06:43:52;100698.00;;;23.40
9119;BMP180;4594;50.994;7.126;2022-09-12T06:46:19;100694.00;;;23.70
9119;BMP180;4594;50.994;7.126;2022-09-12T06:48:45;100694.00;;;24.00
9119;BMP180;4594;50.994;7.126;2022-09-12T06:51:16;100703.00;;;24.40
9119;BMP180;4594;50.994;7.126;2022-09-12T06:53:44;100700.00;;;24.70
9119;BMP180;4594;50.994;7.126;2022-09-12T06:56:21;100698.00;;;25.00
9119;BMP180;4594;50.994;7.126;2022-09-12T06:58:50;100714.00;;;25.30
9119;BMP180;4594;50.994;7.126;2022-09-12T07:01:25;100697.00;;;25.50
9119;BMP180;4594;50.994;7.126;2022-09-12T07:04:00;100703.00;;;25.80
9119;BMP180;4594;50.994;7.126;2022-09-12T07:06:34;100700.00;;;26.00
9119;BMP180;4594;50.994;7.126;2022-09-12T07:09:03;100700.00;;;26.10
9119;BMP180;4594;50.994;7.126;2022-09-12T07:11:35;100703.00;;;26.20
9119;BMP180;4594;50.994;7.126;2022-09-12T07:14:04;100700.00;;;26.30
9119;BMP180;4594;50.994;7.126;2022-09-12T07:16:31;100697.00;;;26.50
9119;BMP180;4594;50.994;7.126;2022-09-12T07:19:00;100705.00;;;26.80
9119;BMP180;4594;50.994;7.126;2022-09-12T07:21:26;100705.00;;;27.00
9119;BMP180;4594;50.994;7.126;2022-09-12T07:23:52;100702.00;;;27.30
9119;BMP180;4594;50.994;7.126;2022-09-12T07:26:25;100699.00;;;27.50
9119;BMP180;4594;50.994;7.126;2022-09-12T07:28:52;100705.00;;;27.70
9119;BMP180;4594;50.994;7.126;2022-09-12T07:31:21;100704.00;;;27.80
9119;BMP180;4594;50.994;7.126;2022-09-12T07:33:48;100716.00;;;27.90
9119;BMP180;4594;50.994;7.126;2022-09-12T07:36:18;100703.00;;;27.90
9119;BMP180;4594;50.994;7.126;2022-09-12T07:38:44;100707.00;;;28.00
9119;BMP180;4594;50.994;7.126;2022-09-12T07:43:40;100720.00;;;28.20
9119;BMP180;4594;50.994;7.126;2022-09-12T07:46:07;100721.00;;;28.20
9119;BMP180;4594;50.994;7.126;2022-09-12T07:48:33;100722.00;;;28.30
9119;BMP180;4594;50.994;7.126;2022-09-12T07:51:01;100713.00;;;28.30
9119;BMP180;4594;50.994;7.126;2022-09-12T07:53:38;100716.00;;;28.40
9119;BMP180;4594;50.994;7.126;2022-09-12T07:56:05;100717.00;;;28.50
9119;BMP180;4594;50.994;7.126;2022-09-12T07:58:33;100718.00;;;28.60
9119;BMP180;4594;50.994;7.126;2022-09-12T08:01:05;100712.00;;;28.60
9119;BMP180;4594;50.994;7.126;2022-09-12T08:03:31;100709.00;;;28.60
9119;BMP180;4594;50.994;7.126;2022-09-12T08:06:16;100716.00;;;28.60
9119;BMP180;4594;50.994;7.126;2022-09-12T08:08:45;100711.00;;;28.80
9119;BMP180;4594;50.994;7.126;2022-09-12T08:11:14;100710.00;;;29.00
9119;BMP180;4594;50.994;7.126;2022-09-12T08:13:41;100717.00;;;29.20
9119;BMP180;4594;50.994;7.126;2022-09-12T08:16:16;100716.00;;;29.20
9119;BMP180;4594;50.994;7.126;2022-09-12T08:18:43;100718.00;;;29.10
9119;BMP180;4594;50.994;7.126;2022-09-12T08:21:14;100715.00;;;29.00
9119;BMP180;4594;50.994;7.126;2022-09-12T08:23:41;100712.00;;;29.00
9119;BMP180;4594;50.994;7.126;2022-09-12T08:26:08;100720.00;;;28.90
9119;BMP180;4594;50.994;7.126;2022-09-12T08:28:36;100712.00;;;29.00
9119;BMP180;4594;50.994;7.126;2022-09-12T08:31:07;100712.00;;;29.10
9119;BMP180;4594;50.994;7.126;2022-09-12T08:33:34;100715.00;;;29.20
9119;BMP180;4594;50.994;7.126;2022-09-12T08:36:14;100728.00;;;29.50
9119;BMP180;4594;50.994;7.126;2022-09-12T08:38:45;100725.00;;;29.80
9119;BMP180;4594;50.994;7.126;2022-09-12T08:47:20;100705.00;;;31.40
9119;BMP180;4594;50.994;7.126;2022-09-12T08:53:03;100704.00;;;33.10
9119;BMP180;4594;50.994;7.126;2022-09-12T08:55:57;100713.00;;;34.30
9119;BMP180;4594;50.994;7.126;2022-09-12T08:58:26;100706.00;;;35.10
9119;BMP180;4594;50.994;7.126;2022-09-12T09:01:18;100716.00;;;35.70
9119;BMP180;4594;50.994;7.126;2022-09-12T09:04:35;100718.00;;;36.40
9119;BMP180;4594;50.994;7.126;2022-09-12T09:10:47;100708.00;;;37.60
9119;BMP180;4594;50.994;7.126;2022-09-12T09:16:38;100708.00;;;38.50
9119;BMP180;4594;50.994;7.126;2022-09-12T09:19:17;100700.00;;;38.80
9119;BMP180;4594;50.994;7.126;2022-09-12T09:21:53;100704.00;;;39.20
9119;BMP180;4594;50.994;7.126;2022-09-12T09:24:32;100694.00;;;39.70
9119;BMP180;4594;50.994;7.126;2022-09-12T09:27:10;100686.00;;;40.20
9119;BMP180;4594;50.994;7.126;2022-09-12T09:29:44;100697.00;;;40.70
9119;BMP180;4594;50.994;7.126;2022-09-12T09:32:22;100692.00;;;41.10
9119;BMP180;4594;50.994;7.126;2022-09-12T09:34:50;100694.00;;;41.70
9119;BMP180;4594;50.994;7.126;2022-09-12T09:42:45;100698.00;;;41.60
9119;BMP180;4594;50.994;7.126;2022-09-12T09:45:20;100697.00;;;41.60
9119;BMP180;4594;50.994;7.126;2022-09-12T09:50:49;100684.00;;;41.80
9119;BMP180;4594;50.994;7.126;2022-09-12T09:53:40;100680.00;;;42.00
9119;BMP180;4594;50.994;7.126;2022-09-12T09:56:32;100681.00;;;42.30
9119;BMP180;4594;50.994;7.126;2022-09-12T09:59:26;100677.00;;;42.60
9119;BMP180;4594;50.994;7.126;2022-09-12T10:04:39;100682.00;;;43.10
9119;BMP180;4594;50.994;7.126;2022-09-12T10:07:05;100683.00;;;43.20
9119;BMP180;4594;50.994;7.126;2022-09-12T10:09:34;100675.00;;;43.10
9119;BMP180;4594;50.994;7.126;2022-09-12T10:12:20;100665.00;;;42.80
9119;BMP180;4594;50.994;7.126;2022-09-12T10:15:01;100668.00;;;42.80
9119;BMP180;4594;50.994;7.126;2022-09-12T10:17:41;100660.00;;;42.90
9119;BMP180;4594;50.994;7.126;2022-09-12T10:20:44;100661.00;;;43.00
9119;BMP180;4594;50.994;7.126;2022-09-12T10:23:34;100664.00;;;43.10
9119;BMP180;4594;50.994;7.126;2022-09-12T10:26:08;100657.00;;;43.10
9119;BMP180;4594;50.994;7.126;2022-09-12T10:28:51;100654.00;;;43.20
9119;BMP180;4594;50.994;7.126;2022-09-12T10:31:40;100665.00;;;43.20
9119;BMP180;4594;50.994;7.126;2022-09-12T10:34:33;100667.00;;;42.60
9119;BMP180;4594;50.994;7.126;2022-09-12T10:37:05;100669.00;;;41.80
9119;BMP180;4594;50.994;7.126;2022-09-12T10:39:31;100661.00;;;41.00
9119;BMP180;4594;50.994;7.126;2022-09-12T10:41:59;100666.00;;;40.30
9119;BMP180;4594;50.994;7.126;2022-09-12T10:44:29;100659.00;;;39.60
9119;BMP180;4594;50.994;7.126;2022-09-12T10:46:57;100653.00;;;39.00
9119;BMP180;4594;50.994;7.126;2022-09-12T10:49:30;100657.00;;;38.40
9119;BMP180;4594;50.994;7.126;2022-09-12T10:52:34;100652.00;;;37.80
9119;BMP180;4594;50.994;7.126;2022-09-12T10:55:00;100651.00;;;37.30
9119;BMP180;4594;50.994;7.126;2022-09-12T10:58:06;100653.00;;;36.80
9119;BMP180;4594;50.994;7.126;2022-09-12T11:00:45;100644.00;;;36.40
9119;BMP180;4594;50.994;7.126;2022-09-12T11:03:50;100649.00;;;35.90
9119;BMP180;4594;50.994;7.126;2022-09-12T11:06:30;100636.00;;;35.50
9119;BMP180;4594;50.994;7.126;2022-09-12T11:09:17;100635.00;;;35.10
9119;BMP180;4594;50.994;7.126;2022-09-12T11:12:24;100630.00;;;34.70
9119;BMP180;4594;50.994;7.126;2022-09-12T11:21:04;100631.00;;;33.90
9119;BMP180;4594;50.994;7.126;2022-09-12T11:30:15;100604.00;;;33.00
9119;BMP180;4594;50.994;7.126;2022-09-12T11:33:13;100598.00;;;32.70
9119;BMP180;4594;50.994;7.126;2022-09-12T11:35:49;100588.00;;;32.60
9119;BMP180;4594;50.994;7.126;2022-09-12T11:38:56;100601.00;;;32.40
9119;BMP180;4594;50.994;7.126;2022-09-12T11:41:35;100603.00;;;32.20
9119;BMP180;4594;50.994;7.126;2022-09-12T11:44:32;100594.00;;;31.90
9119;BMP180;4594;50.994;7.126;2022-09-12T11:47:06;100590.00;;;31.70
9119;BMP180;4594;50.994;7.126;2022-09-12T11:49:50;100591.00;;;31.50
9119;BMP180;4594;50.994;7.126;2022-09-12T11:52:19;100594.00;;;31.40
9119;BMP180;4594;50.994;7.126;2022-09-12T11:54:57;100592.00;;;31.10
9119;BMP180;4594;50.994;7.126;2022-09-12T12:00:23;100582.00;;;30.70
9119;BMP180;4594;50.994;7.126;2022-09-12T12:05:42;100578.00;;;30.40
9119;BMP180;4594;50.994;7.126;2022-09-12T12:08:10;100595.00;;;30.40
9119;BMP180;4594;50.994;7.126;2022-09-12T12:10:44;100579.00;;;30.30
9119;BMP180;4594;50.994;7.126;2022-09-12T12:15:50;100575.00;;;30.00
9119;BMP180;4594;50.994;7.126;2022-09-12T12:18:28;100592.00;;;29.90
9119;BMP180;4594;50.994;7.126;2022-09-12T12:20:56;100572.00;;;29.90
9119;BMP180;4594;50.994;7.126;2022-09-12T12:47:43;100543.00;;;29.10
9119;BMP180;4594;50.994;7.126;2022-09-12T12:52:58;100520.00;;;28.90
9119;BMP180;4594;50.994;7.126;2022-09-12T12:55:52;100530.00;;;28.80
9119;BMP180;4594;50.994;7.126;2022-09-12T12:58:37;100524.00;;;28.70
9119;BMP180;4594;50.994;7.126;2022-09-12T13:01:18;100519.00;;;28.70
9119;BMP180;4594;50.994;7.126;2022-09-12T13:04:03;100508.00;;;28.60
9119;BMP180;4594;50.994;7.126;2022-09-12T13:06:35;100496.00;;;28.60
9119;BMP180;4594;50.994;7.126;2022-09-12T13:11:43;100497.00;;;28.70
9119;BMP180;4594;50.994;7.126;2022-09-12T13:14:35;100496.00;;;28.60
9119;BMP180;4594;50.994;7.126;2022-09-12T13:17:05;100501.00;;;28.70
9119;BMP180;4594;50.994;7.126;2022-09-12T13:19:36;100491.00;;;28.70
9119;BMP180;4594;50.994;7.126;2022-09-12T13:22:07;100485.00;;;28.70
9119;BMP180;4594;50.994;7.126;2022-09-12T13:24:44;100482.00;;;28.70
9119;BMP180;4594;50.994;7.126;2022-09-12T13:27:24;100476.00;;;28.70
9119;BMP180;4594;50.994;7.126;2022-09-12T13:30:13;100478.00;;;28.70
9119;BMP180;4594;50.994;7.126;2022-09-12T13:32:41;100476.00;;;28.70
9119;BMP180;4594;50.994;7.126;2022-09-12T13:35:24;100478.00;;;28.70
9119;BMP180;4594;50.994;7.126;2022-09-12T13:43:47;100483.00;;;28.70
9119;BMP180;4594;50.994;7.126;2022-09-12T13:46:20;100476.00;;;28.70
9119;BMP180;4594;50.994;7.126;2022-09-12T13:48:47;100482.00;;;28.80
9119;BMP180;4594;50.994;7.126;2022-09-12T13:51:29;100487.00;;;28.80
9119;BMP180;4594;50.994;7.126;2022-09-12T13:54:02;100475.00;;;28.80
9119;BMP180;4594;50.994;7.126;2022-09-12T13:56:28;100480.00;;;28.70
9119;BMP180;4594;50.994;7.126;2022-09-12T13:58:57;100476.00;;;28.70
9119;BMP180;4594;50.994;7.126;2022-09-12T14:01:38;100481.00;;;28.80
9119;BMP180;4594;50.994;7.126;2022-09-12T14:04:23;100476.00;;;28.70
9119;BMP180;4594;50.994;7.126;2022-09-12T14:07:21;100465.00;;;28.70
9119;BMP180;4594;50.994;7.126;2022-09-12T14:10:00;100453.00;;;28.80
9119;BMP180;4594;50.994;7.126;2022-09-12T14:12:37;100457.00;;;28.80
9119;BMP180;4594;50.994;7.126;2022-09-12T14:15:13;100452.00;;;28.80
9119;BMP180;4594;50.994;7.126;2022-09-12T14:17:49;100467.00;;;28.90
9119;BMP180;4594;50.994;7.126;2022-09-12T14:20:21;100457.00;;;28.90
9119;BMP180;4594;50.994;7.126;2022-09-12T14:22:50;100449.00;;;28.90
9119;BMP180;4594;50.994;7.126;2022-09-12T14:25:22;100440.00;;;29.00
9119;BMP180;4594;50.994;7.126;2022-09-12T14:27:55;100446.00;;;29.00
9119;BMP180;4594;50.994;7.126;2022-09-12T14:30:28;100437.00;;;29.00
9119;BMP180;4594;50.994;7.126;2022-09-12T14:35:41;100432.00;;;29.10
9119;BMP180;4594;50.994;7.126;2022-09-12T14:40:48;100422.00;;;29.10
9119;BMP180;4594;50.994;7.126;2022-09-12T14:43:28;100411.00;;;29.20
9119;BMP180;4594;50.994;7.126;2022-09-12T14:46:14;100418.00;;;29.20
9119;BMP180;4594;50.994;7.126;2022-09-12T14:49:22;100412.00;;;29.20
9119;BMP180;4594;50.994;7.126;2022-09-12T14:57:30;100394.00;;;29.20
9119;BMP180;4594;50.994;7.126;2022-09-12T15:00:17;100403.00;;;29.20
9119;BMP180;4594;50.994;7.126;2022-09-12T15:02:49;100406.00;;;29.30
9119;BMP180;4594;50.994;7.126;2022-09-12T15:05:21;100407.00;;;29.30
9119;BMP180;4594;50.994;7.126;2022-09-12T15:07:57;100395.00;;;29.30
9119;BMP180;4594;50.994;7.126;2022-09-12T15:10:36;100395.00;;;29.30
9119;BMP180;4594;50.994;7.126;2022-09-12T15:15:44;100385.00;;;29.30
9119;BMP180;4594;50.994;7.126;2022-09-12T15:18:10;100381.00;;;29.30
9119;BMP180;4594;50.994;7.126;2022-09-12T15:20:39;100394.00;;;29.30
9119;BMP180;4594;50.994;7.126;2022-09-12T15:23:13;100384.00;;;29.30
9119;BMP180;4594;50.994;7.126;2022-09-12T15:25:40;100381.00;;;29.30
9119;BMP180;4594;50.994;7.126;2022-09-12T15:28:18;100385.00;;;29.30
9119;BMP180;4594;50.994;7.126;2022-09-12T15:30:45;100385.00;;;29.30
9119;BMP180;4594;50.994;7.126;2022-09-12T15:33:11;100379.00;;;29.30
9119;BMP180;4594;50.994;7.126;2022-09-12T15:35:37;100384.00;;;29.30
9119;BMP180;4594;50.994;7.126;2022-09-12T15:38:04;100376.00;;;29.30
9119;BMP180;4594;50.994;7.126;2022-09-12T15:40:29;100373.00;;;29.20
9119;BMP180;4594;50.994;7.126;2022-09-12T15:42:55;100370.00;;;29.20
9119;BMP180;4594;50.994;7.126;2022-09-12T15:45:25;100373.00;;;29.20
9119;BMP180;4594;50.994;7.126;2022-09-12T15:47:53;100372.00;;;29.20
9119;BMP180;4594;50.994;7.126;2022-09-12T15:50:19;100363.00;;;29.10
9119;BMP180;4594;50.994;7.126;2022-09-12T15:52:44;100374.00;;;29.10
9119;BMP180;4594;50.994;7.126;2022-09-12T15:55:30;100367.00;;;29.10
9119;BMP180;4594;50.994;7.126;2022-09-12T15:57:57;100361.00;;;29.10
9119;BMP180;4594;50.994;7.126;2022-09-12T16:00:23;100357.00;;;29.10
9119;BMP180;4594;50.994;7.126;2022-09-12T16:02:52;100362.00;;;29.10
9119;BMP180;4594;50.994;7.126;2022-09-12T16:05:24;100353.00;;;29.10
9119;BMP180;4594;50.994;7.126;2022-09-12T16:07:52;100350.00;;;29.00
9119;BMP180;4594;50.994;7.126;2022-09-12T16:10:26;100349.00;;;29.00
9119;BMP180;4594;50.994;7.126;2022-09-12T16:12:53;100348.00;;;29.00
9119;BMP180;4594;50.994;7.126;2022-09-12T16:15:22;100347.00;;;29.00
9119;BMP180;4594;50.994;7.126;2022-09-12T16:17:49;100342.00;;;29.00
9119;BMP180;4594;50.994;7.126;2022-09-12T16:20:16;100345.00;;;29.00
9119;BMP180;4594;50.994;7.126;2022-09-12T16:22:41;100342.00;;;28.90
9119;BMP180;4594;50.994;7.126;2022-09-12T16:25:08;100337.00;;;28.90
9119;BMP180;4594;50.994;7.126;2022-09-12T16:27:34;100339.00;;;28.90
9119;BMP180;4594;50.994;7.126;2022-09-12T16:30:00;100339.00;;;28.90
9119;BMP180;4594;50.994;7.126;2022-09-12T16:32:26;100333.00;;;28.80
9119;BMP180;4594;50.994;7.126;2022-09-12T16:34:52;100321.00;;;28.80
9119;BMP180;4594;50.994;7.126;2022-09-12T16:37:18;100324.00;;;28.80
9119;BMP180;4594;50.994;7.126;2022-09-12T16:39:43;100304.00;;;28.70
9119;BMP180;4594;50.994;7.126;2022-09-12T16:42:09;100309.00;;;28.70
9119;BMP180;4594;50.994;7.126;2022-09-12T16:44:35;100305.00;;;28.70
9119;BMP180;4594;50.994;7.126;2022-09-12T16:47:01;100318.00;;;28.70
9119;BMP180;4594;50.994;7.126;2022-09-12T16:49:26;100321.00;;;28.70
9119;BMP180;4594;50.994;7.126;2022-09-12T16:51:52;100307.00;;;28.70
9119;BMP180;4594;50.994;7.126;2022-09-12T16:54:18;100299.00;;;28.60
9119;BMP180;4594;50.994;7.126;2022-09-12T16:56:44;100306.00;;;28.60
9119;BMP180;4594;50.994;7.126;2022-09-12T16:59:11;100303.00;;;28.60
9119;BMP180;4594;50.994;7.126;2022-09-12T17:01:41;100313.00;;;28.60
9119;BMP180;4594;50.994;7.126;2022-09-12T17:04:08;100314.00;;;28.50
9119;BMP180;4594;50.994;7.126;2022-09-12T17:06:34;100308.00;;;28.50
9119;BMP180;4594;50.994;7.126;2022-09-12T17:09:01;100306.00;;;28.50
9119;BMP180;4594;50.994;7.126;2022-09-12T17:11:35;100307.00;;;28.40
9119;BMP180;4594;50.994;7.126;2022-09-12T17:14:04;100302.00;;;28.40
9119;BMP180;4594;50.994;7.126;2022-09-12T17:16:35;100295.00;;;28.40
9119;BMP180;4594;50.994;7.126;2022-09-12T17:19:02;100293.00;;;28.30
9119;BMP180;4594;50.994;7.126;2022-09-12T17:21:28;100291.00;;;28.30